Time;durP1;ratioP1;P1;durP2;ratioP2;P2;SDS_P1;SDS_P2;PMS_P1;PMS_P2;Temp;Humidity;BMP_temperature;BMP_pressure;BME280_temperature;BME280_humidity;BME280_pressure;Samples;Min_cycle;Max_cycle;Signal;HPM_P1;HPM_P2
2023/03/29 00:00:12;;;;;;;7.78;4.60;;;;;;;5.58;62.51;100244.47;10387901;28;20049;-60
2023/03/29 00:05:16;;;;;;;7.47;4.68;;;;;;;5.72;62.15;100238.78;10382778;28;20671;-60
2023/03/29 00:10:22;;;;;;;7.97;5.10;;;;;;;5.62;62.15;100235.69;10385084;28;20076;-60
2023/03/29 00:15:24;;;;;;;6.82;4.13;;;;;;;5.57;62.38;100222.88;10389542;28;20049;-59
2023/03/29 00:20:27;;;;;;;7.10;3.67;;;;;;;5.67;62.33;100222.56;10388527;28;20061;-60
2023/03/29 00:25:29;;;;;;;12.60;5.43;;;;;;;5.77;62.39;100211.81;10383597;28;20277;-60
2023/03/29 00:30:31;;;;;;;12.05;5.25;;;;;;;5.71;62.74;100199.03;10389092;28;20481;-60
2023/03/29 00:35:32;;;;;;;8.50;4.15;;;;;;;5.76;62.87;100202.31;10384377;28;20099;-59
2023/03/29 00:40:41;;;;;;;12.63;4.93;;;;;;;5.72;63.18;100185.16;10390189;28;20522;-60
2023/03/29 00:45:42;;;;;;;10.35;4.78;;;;;;;5.70;62.87;100183.50;10394837;28;20048;-59
2023/03/29 00:50:51;;;;;;;10.88;4.78;;;;;;;5.55;63.26;100190.13;10395635;28;20037;-59
2023/03/29 00:56:10;;;;;;;10.25;5.10;;;;;;;5.60;63.37;100175.22;10395448;28;20067;-60
2023/03/29 01:01:16;;;;;;;8.50;4.72;;;;;;;5.61;63.23;100169.16;10375952;28;20053;-60
2023/03/29 01:06:23;;;;;;;12.77;6.07;;;;;;;5.54;63.01;100159.88;10392029;28;20049;-60
2023/03/29 01:11:34;;;;;;;7.60;4.80;;;;;;;5.39;63.60;100150.06;10393438;28;20045;-60
2023/03/29 01:16:37;;;;;;;13.27;6.00;;;;;;;5.48;63.34;100144.53;10390984;28;20494;-60
2023/03/29 01:21:46;;;;;;;16.60;6.22;;;;;;;5.57;63.20;100141.63;10396398;28;20154;-60
2023/03/29 01:26:56;;;;;;;22.75;6.43;;;;;;;5.60;63.28;100128.50;10392912;28;20038;-60
2023/03/29 01:32:10;;;;;;;23.10;6.78;;;;;;;5.50;63.36;100116.78;10393089;28;20056;-60
2023/03/29 01:37:23;;;;;;;15.77;6.68;;;;;;;5.44;63.54;100119.59;10396869;28;20065;-60
2023/03/29 01:42:37;;;;;;;14.98;6.38;;;;;;;5.50;63.71;100114.19;10392936;28;20052;-60
2023/03/29 01:47:49;;;;;;;14.45;7.72;;;;;;;5.57;63.56;100121.69;10391660;28;20244;-60
2023/03/29 01:53:13;;;;;;;16.83;7.28;;;;;;;5.57;63.41;100112.22;10391234;28;20050;-59
2023/03/29 01:58:17;;;;;;;14.68;6.70;;;;;;;5.55;63.28;100118.31;10392753;28;20293;-60
2023/03/29 02:03:25;;;;;;;14.50;6.32;;;;;;;5.51;63.22;100108.13;10392889;28;20182;-60
2023/03/29 02:08:28;;;;;;;13.05;6.90;;;;;;;5.32;63.28;100105.34;10399759;28;20049;-60
2023/03/29 02:13:31;;;;;;;12.90;6.43;;;;;;;5.17;63.26;100100.69;10398252;28;20048;-60
2023/03/29 02:18:33;;;;;;;15.30;6.35;;;;;;;5.06;63.38;100095.03;10395171;28;20041;-59
2023/03/29 02:23:45;;;;;;;19.15;7.30;;;;;;;4.97;63.77;100097.06;10397015;28;20057;-60
2023/03/29 02:28:47;;;;;;;14.80;7.68;;;;;;;4.90;63.49;100095.59;10397706;28;20046;-60
2023/03/29 02:33:51;;;;;;;15.57;6.40;;;;;;;4.84;63.85;100088.88;10400192;28;20049;-60
2023/03/29 02:38:54;;;;;;;17.60;8.20;;;;;;;4.80;63.52;100087.28;10400786;28;20081;-59
2023/03/29 02:43:58;;;;;;;12.32;7.28;;;;;;;4.78;64.03;100083.06;10378438;28;20045;-59
2023/03/29 02:49:00;;;;;;;11.95;6.57;;;;;;;4.92;63.82;100075.66;10399113;28;20057;-60
2023/03/29 02:54:14;;;;;;;11.15;6.85;;;;;;;5.09;64.17;100071.59;10399001;28;20041;-59
2023/03/29 02:59:21;;;;;;;13.60;6.72;;;;;;;5.20;63.77;100071.22;10398940;28;20049;-59
2023/03/29 03:04:24;;;;;;;19.48;8.75;;;;;;;5.16;63.70;100054.94;10392389;28;20046;-59
2023/03/29 03:09:26;;;;;;;17.73;8.35;;;;;;;5.17;63.60;100060.94;10392623;28;20045;-59
2023/03/29 03:14:28;;;;;;;17.08;8.18;;;;;;;5.20;63.48;100047.88;10382309;28;20045;-60
2023/03/29 03:19:30;;;;;;;21.23;10.38;;;;;;;5.19;63.42;100053.94;10393904;28;20135;-59
2023/03/29 03:24:32;;;;;;;14.15;8.02;;;;;;;5.16;63.48;100041.09;10392730;28;20045;-59
2023/03/29 03:29:35;;;;;;;17.10;8.48;;;;;;;5.22;63.60;100046.94;10388625;28;20059;-60
2023/03/29 03:34:37;;;;;;;13.55;8.73;;;;;;;5.23;63.62;100043.41;10389609;28;20045;-60
2023/03/29 03:39:39;;;;;;;16.42;8.20;;;;;;;5.24;63.65;100041.69;10390640;28;20064;-60
2023/03/29 03:44:41;;;;;;;19.55;8.93;;;;;;;5.33;63.65;100038.75;10390636;28;20293;-59
2023/03/29 03:49:43;;;;;;;17.70;8.52;;;;;;;5.30;63.67;100046.63;10388141;28;20049;-60
2023/03/29 03:54:45;;;;;;;17.77;8.35;;;;;;;5.29;63.59;100040.59;10381426;28;20052;-60
2023/03/29 03:59:47;;;;;;;13.77;8.38;;;;;;;5.27;63.55;100036.38;10389288;28;20119;-59
2023/03/29 04:04:49;;;;;;;17.73;9.35;;;;;;;5.23;63.80;100024.41;10389355;28;20049;-59
2023/03/29 04:09:51;;;;;;;12.85;7.68;;;;;;;5.20;63.66;100033.19;10390346;28;20056;-60
2023/03/29 04:14:53;;;;;;;13.25;8.20;;;;;;;5.04;63.80;100031.19;10389571;28;20040;-60
2023/03/29 04:19:56;;;;;;;15.95;8.80;;;;;;;5.13;64.00;100026.50;10392068;28;20064;-60
2023/03/29 04:24:57;;;;;;;16.88;8.80;;;;;;;5.19;63.64;100028.03;10397080;28;20408;-60
2023/03/29 04:29:59;;;;;;;10.57;7.75;;;;;;;5.30;63.84;100016.38;10394962;28;20048;-60
2023/03/29 04:35:03;;;;;;;11.75;7.93;;;;;;;5.33;63.71;100015.44;10395889;28;20457;-60
2023/03/29 04:40:13;;;;;;;13.25;6.95;;;;;;;5.32;63.71;100011.97;10395273;28;20050;-59
2023/03/29 04:45:16;;;;;;;13.02;8.25;;;;;;;5.31;63.82;99999.06;10395366;28;20047;-60
2023/03/29 04:50:18;;;;;;;22.70;9.07;;;;;;;5.30;63.90;100005.16;10401892;28;20338;-59
2023/03/29 04:55:20;;;;;;;15.75;7.85;;;;;;;5.26;63.91;100014.81;10395767;28;20050;-60
2023/03/29 05:00:26;;;;;;;20.10;9.63;;;;;;;5.26;63.75;100013.94;10375811;28;20325;-59
2023/03/29 05:05:27;;;;;;;21.77;8.52;;;;;;;5.41;63.75;100014.22;10392566;28;20041;-59
2023/03/29 05:10:29;;;;;;;10.77;7.85;;;;;;;5.43;63.64;100015.00;10392685;28;20152;-60
2023/03/29 05:15:31;;;;;;;15.35;8.18;;;;;;;5.40;63.80;100017.72;10393206;28;20614;-59
2023/03/29 05:20:33;;;;;;;14.85;7.82;;;;;;;5.43;63.90;100027.16;10394507;28;20060;-60
2023/03/29 05:25:34;;;;;;;17.20;8.65;;;;;;;5.52;63.86;100017.25;10391851;28;20128;-60
2023/03/29 05:30:36;;;;;;;16.88;9.98;;;;;;;5.57;63.83;100020.50;10395142;28;20051;-60
2023/03/29 05:35:38;;;;;;;16.08;8.43;;;;;;;5.61;63.73;100017.81;10395210;28;20049;-60
2023/03/29 05:40:40;;;;;;;15.57;9.05;;;;;;;5.68;63.70;100017.50;10392745;28;20048;-60
2023/03/29 05:45:42;;;;;;;12.05;7.55;;;;;;;5.67;63.59;100010.66;10394865;28;20060;-60
2023/03/29 05:50:48;;;;;;;14.57;8.80;;;;;;;5.71;63.73;100012.22;10391983;28;20244;-60
2023/03/29 05:55:50;;;;;;;11.68;7.55;;;;;;;5.73;63.91;100013.00;10391182;28;20056;-60
2023/03/29 06:00:52;;;;;;;14.15;8.38;;;;;;;5.94;63.36;100012.16;10389638;28;20092;-60
2023/03/29 06:05:56;;;;;;;12.55;7.35;;;;;;;6.04;63.35;100023.84;10390293;28;20045;-60
2023/03/29 06:11:00;;;;;;;14.40;8.00;;;;;;;6.01;63.34;100016.19;10387197;28;20045;-60
2023/03/29 06:16:06;;;;;;;13.70;8.82;;;;;;;6.18;62.70;100008.59;10385004;28;20048;-60
2023/03/29 06:21:08;;;;;;;15.40;9.52;;;;;;;6.28;62.49;100007.34;10375448;28;20046;-60
2023/03/29 06:26:09;;;;;;;13.15;9.88;;;;;;;6.28;62.44;100011.69;10387537;28;20053;-60
2023/03/29 06:31:11;;;;;;;14.00;9.50;;;;;;;6.26;62.35;100014.34;10389424;28;20333;-60
2023/03/29 06:36:15;;;;;;;13.00;9.88;;;;;;;6.21;62.54;100012.78;10387327;28;20073;-60
2023/03/29 06:41:17;;;;;;;12.93;9.50;;;;;;;6.10;63.12;100013.22;10388717;28;20179;-60
2023/03/29 06:46:18;;;;;;;14.95;8.70;;;;;;;6.07;63.16;100015.09;10387277;28;20049;-60
2023/03/29 06:51:21;;;;;;;16.75;10.18;;;;;;;6.18;62.74;100010.34;10387202;28;20095;-60
2023/03/29 06:56:24;;;;;;;12.85;9.30;;;;;;;6.30;62.20;100013.31;10382219;28;20898;-60
2023/03/29 07:01:27;;;;;;;15.95;9.48;;;;;;;6.26;62.25;100019.53;10386986;28;20151;-60
2023/03/29 07:06:29;;;;;;;11.18;8.85;;;;;;;6.28;62.62;100024.66;10384914;28;20045;-60
2023/03/29 07:11:35;;;;;;;17.20;9.25;;;;;;;6.18;63.10;100031.13;10388472;28;20483;-60
2023/03/29 07:16:37;;;;;;;12.35;9.10;;;;;;;6.32;62.93;100032.28;10389268;28;20049;-60
2023/03/29 07:21:38;;;;;;;14.65;10.00;;;;;;;6.53;62.66;100027.09;10385449;28;20085;-60
2023/03/29 07:26:40;;;;;;;16.60;10.10;;;;;;;6.68;61.85;100023.84;10385104;28;20075;-60
2023/03/29 07:32:01;;;;;;;12.63;9.43;;;;;;;6.56;61.96;100029.56;10370371;28;20045;-58
2023/03/29 07:37:02;;;;;;;12.35;9.10;;;;;;;6.54;62.36;100047.81;10407722;28;20502;-59
2023/03/29 07:42:05;;;;;;;12.07;8.93;;;;;;;6.78;62.09;100040.75;10389050;28;20056;-68
2023/03/29 07:47:07;;;;;;;13.05;9.35;;;;;;;7.08;61.81;100044.66;10329931;22;20519;-79
2023/03/29 07:52:08;;;;;;;14.73;8.45;;;;;;;7.35;60.81;100043.41;10321905;28;20054;-78
2023/03/29 07:57:11;;;;;;;13.48;7.90;;;;;;;7.52;60.15;100040.03;10315617;28;20053;-78
2023/03/29 08:02:15;;;;;;;13.20;7.65;;;;;;;7.60;60.10;100033.59;10307353;28;20065;-78
2023/03/29 08:07:18;;;;;;;12.13;7.97;;;;;;;7.51;59.66;100028.78;10317284;28;20050;-78
2023/03/29 08:17:25;;;;;;;12.88;7.95;;;;;;;7.57;59.63;100032.88;10289782;28;20469;-58
2023/03/29 08:22:27;;;;;;;11.38;8.10;;;;;;;7.94;59.49;100020.66;10293620;28;20153;-57
2023/03/29 08:27:29;;;;;;;11.18;6.95;;;;;;;8.65;57.91;100016.31;10306174;28;20050;-57
2023/03/29 08:32:35;;;;;;;13.25;7.43;;;;;;;8.80;57.42;100013.81;10302570;28;20049;-58
2023/03/29 08:37:37;;;;;;;12.52;7.78;;;;;;;8.76;57.42;100014.88;10306854;28;20057;-56
2023/03/29 08:42:55;;;;;;;10.88;7.05;;;;;;;8.91;56.38;100012.41;10307261;28;20050;-58
2023/03/29 08:48:02;;;;;;;12.23;7.55;;;;;;;9.13;56.28;100023.41;10305656;28;20050;-57
2023/03/29 08:53:14;;;;;;;13.32;6.57;;;;;;;9.30;56.28;100012.94;10303821;28;20054;-57
2023/03/29 08:58:20;;;;;;;10.13;6.68;;;;;;;9.46;56.05;100024.25;10307709;28;20598;-57
2023/03/29 09:03:30;;;;;;;14.00;6.90;;;;;;;9.51;56.10;100024.81;10299702;28;20151;-58
2023/03/29 09:08:39;;;;;;;8.40;6.00;;;;;;;9.75;55.52;100012.25;10301584;28;20046;-58
2023/03/29 09:13:49;;;;;;;13.57;6.00;;;;;;;9.78;54.83;100007.69;10297814;28;20053;-57
2023/03/29 09:18:58;;;;;;;11.25;6.07;;;;;;;9.87;54.34;100001.13;10301810;28;20070;-58
2023/03/29 09:24:25;;;;;;;9.27;6.10;;;;;;;10.03;53.85;100007.16;10297143;28;20042;-58
2023/03/29 09:29:40;;;;;;;15.18;6.35;;;;;;;10.47;53.78;100002.84;10228651;28;20042;-58
2023/03/29 09:34:53;;;;;;;9.23;6.18;;;;;;;10.84;52.95;100007.59;10298794;28;20054;-56
2023/03/29 09:39:56;;;;;;;11.32;5.88;;;;;;;11.03;52.85;100009.97;10307080;28;20058;-58
2023/03/29 09:45:07;;;;;;;10.35;6.07;;;;;;;10.82;52.37;99999.00;10301670;28;20341;-58
2023/03/29 09:50:16;;;;;;;11.13;6.18;;;;;;;10.81;52.77;100004.31;10302892;28;20137;-58
2023/03/29 09:55:35;;;;;;;10.57;5.47;;;;;;;10.92;52.93;100005.38;10295617;28;20047;-59
2023/03/29 10:06:59;;;;;;;11.00;4.97;;;;;;;11.17;52.64;99978.59;10298163;28;20042;-57
2023/03/29 10:25:13;;;;;;;7.82;4.80;;;;;;;11.44;51.94;99962.97;10278603;28;20947;-57
2023/03/29 10:30:21;;;;;;;8.05;5.13;;;;;;;11.26;52.03;99947.44;10294663;28;20052;-59
2023/03/29 10:35:43;;;;;;;9.35;5.13;;;;;;;11.38;51.96;99956.31;10297033;28;20046;-58
2023/03/29 10:40:46;;;;;;;8.35;5.13;;;;;;;11.50;51.97;99947.69;10294587;28;21291;-58
2023/03/29 10:45:50;;;;;;;11.35;4.70;;;;;;;11.96;50.69;99954.28;10299227;28;20054;-58
2023/03/29 10:50:56;;;;;;;9.68;5.10;;;;;;;12.03;50.63;99949.47;10297202;28;20050;-58
2023/03/29 10:56:23;;;;;;;11.52;4.68;;;;;;;12.45;49.85;99935.34;10297923;28;20517;-58
2023/03/29 11:08:06;;;;;;;7.67;4.97;;;;;;;13.65;48.42;99924.19;10298946;28;20038;-59
2023/03/29 11:13:19;;;;;;;10.00;4.77;;;;;;;14.24;47.26;99916.31;10292885;28;20061;-59
2023/03/29 11:18:27;;;;;;;9.20;4.15;;;;;;;14.25;46.86;99916.19;10300388;28;20101;-59
2023/03/29 11:23:38;;;;;;;8.18;4.18;;;;;;;14.49;45.89;99909.09;10288904;28;20057;-58
2023/03/29 11:28:56;;;;;;;7.07;3.90;;;;;;;14.49;46.39;99906.47;10294793;28;21114;-58
2023/03/29 11:34:06;;;;;;;9.15;4.35;;;;;;;14.62;46.20;99895.00;10292787;28;20553;-58
2023/03/29 11:39:54;;;;;;;6.03;3.17;;;;;;;14.67;45.81;99892.88;10294124;28;20453;-58
2023/03/29 11:44:58;;;;;;;6.05;2.55;;;;;;;15.34;45.97;99883.97;10282598;28;20049;-58
2023/03/29 11:50:14;;;;;;;4.90;2.20;;;;;;;15.58;44.28;99882.03;10297837;28;20038;-58
2023/03/29 11:55:22;;;;;;;6.03;2.33;;;;;;;15.81;44.48;99886.28;10292073;28;20054;-58
2023/03/29 12:00:29;;;;;;;5.53;2.22;;;;;;;15.88;44.34;99876.03;10295890;28;20149;-58
2023/03/29 12:05:38;;;;;;;5.85;2.22;;;;;;;15.93;44.41;99863.31;10292212;28;20509;-58
2023/03/29 12:10:46;;;;;;;5.95;2.10;;;;;;;15.79;44.27;99861.00;10293880;28;20952;-58
2023/03/29 12:16:15;;;;;;;6.03;2.10;;;;;;;15.89;43.93;99857.47;10292207;28;20057;-56
2023/03/29 12:21:22;;;;;;;5.60;2.20;;;;;;;16.27;44.21;99850.78;10284183;28;20171;-57
2023/03/29 12:26:51;;;;;;;6.35;2.20;;;;;;;16.31;43.15;99846.91;10294368;28;20058;-58
2023/03/29 12:38:25;;;;;;;6.38;2.22;;;;;;;16.62;43.84;99840.72;10295876;28;20067;-58
2023/03/29 12:49:57;;;;;;;5.67;2.53;;;;;;;16.70;42.55;99840.91;10298548;28;20043;-58
2023/03/29 12:55:03;;;;;;;4.43;1.90;;;;;;;16.80;43.32;99816.22;10293637;28;20053;-57
2023/03/29 13:00:41;;;;;;;5.05;1.83;;;;;;;16.97;42.64;99812.09;10301327;28;20054;-58
2023/03/29 13:05:43;;;;;;;4.75;2.20;;;;;;;16.85;43.48;99800.78;10299000;28;20704;-58
2023/03/29 13:10:52;;;;;;;5.07;1.67;;;;;;;16.83;43.48;99793.97;10293505;28;20545;-57
2023/03/29 13:15:55;;;;;;;3.88;1.70;;;;;;;16.84;43.71;99778.00;10300249;28;20046;-58
2023/03/29 13:21:08;;;;;;;3.17;1.70;;;;;;;16.79;43.71;99774.09;10297756;28;20050;-56
2023/03/29 15:20:50;;;;;;;3.38;1.67;;;;;;;16.43;42.31;99683.09;10293979;28;21020;-55
2023/03/29 15:32:34;;;;;;;4.43;1.70;;;;;;;16.26;42.17;99680.22;10238368;28;20043;-57
2023/03/29 15:37:36;;;;;;;7.97;2.55;;;;;;;16.33;42.98;99676.06;10259041;28;20065;-55
2023/03/29 15:42:38;;;;;;;4.85;1.80;;;;;;;16.33;42.87;99673.44;10232714;28;20050;-55
2023/03/29 15:47:40;;;;;;;3.88;1.90;;;;;;;16.36;42.94;99657.34;10240552;28;20520;-57
2023/03/29 15:52:41;;;;;;;4.35;1.70;;;;;;;16.40;42.89;99645.53;10229650;28;20055;-57
2023/03/29 15:57:47;;;;;;;11.00;5.03;;;;;;;16.62;42.66;99630.34;10229837;28;20511;-55
2023/03/29 16:02:50;;;;;;;8.05;3.88;;;;;;;16.83;42.53;99633.69;10235656;28;20975;-57
2023/03/29 16:07:51;;;;;;;6.07;2.90;;;;;;;16.83;42.34;99636.31;10238620;28;20836;-57
2023/03/29 16:12:53;;;;;;;6.22;2.83;;;;;;;16.70;42.73;99629.66;10238431;28;20058;-59
2023/03/29 16:17:55;;;;;;;6.38;1.90;;;;;;;16.62;42.75;99618.94;10263299;28;20062;-61
2023/03/29 16:22:57;;;;;;;6.50;1.92;;;;;;;16.58;42.99;99609.63;10272005;28;20057;-61
2023/03/29 16:27:58;;;;;;;5.00;2.08;;;;;;;16.54;43.39;99611.72;10306103;28;20057;-60
2023/03/29 16:33:04;;;;;;;3.97;1.92;;;;;;;16.37;43.71;99600.94;10287173;28;20046;-60
2023/03/29 16:50:51;;;;;;;4.75;2.08;;;;;;;15.79;46.22;99600.78;10300386;28;21053;-61
2023/03/29 16:55:53;;;;;;;3.80;1.88;;;;;;;15.65;47.20;99593.22;10304946;28;20050;-61
2023/03/29 17:00:55;;;;;;;4.72;1.77;;;;;;;15.48;47.95;99590.31;10300931;28;20166;-61
2023/03/29 17:05:58;;;;;;;4.03;2.10;;;;;;;15.42;48.64;99596.94;10301648;28;21134;-61
2023/03/29 17:11:00;;;;;;;3.17;1.60;;;;;;;15.34;49.47;99583.59;10296464;28;20486;-60
2023/03/29 17:16:02;;;;;;;3.88;1.52;;;;;;;15.29;50.07;99577.84;10305387;28;20124;-61
2023/03/29 17:21:05;;;;;;;4.47;2.05;;;;;;;15.11;51.00;99559.19;10300862;28;20478;-61
2023/03/29 18:48:06;;;;;;;10.48;6.20;;;;;;;13.63;56.48;99576.59;12736942;23;20457;-58
2023/03/29 18:54:32;;;;;;;;;;;;;;;13.02;57.85;99582.19;10402066;27;20644;-59
2023/03/29 18:59:35;;;;;;;9.02;4.40;;;;;;;13.24;57.16;99574.38;10418208;28;19979;-59
2023/03/29 19:04:37;;;;;;;9.07;3.50;;;;;;;13.18;57.37;99582.72;10378007;28;20047;-58
2023/03/29 19:09:40;;;;;;;8.52;2.72;;;;;;;13.21;57.42;99586.91;10377158;28;20042;-59
2023/03/29 19:14:42;;;;;;;7.70;2.90;;;;;;;13.05;57.59;99573.25;10371308;28;20119;-59
2023/03/29 19:19:44;;;;;;;8.13;3.75;;;;;;;12.95;57.91;99565.22;10374121;28;20042;-59
2023/03/29 19:24:46;;;;;;;11.52;5.55;;;;;;;12.91;58.42;99563.78;10361118;28;20135;-59
2023/03/29 19:29:48;;;;;;;7.93;3.88;;;;;;;12.87;58.37;99559.72;10381524;28;20399;-59
2023/03/29 19:34:50;;;;;;;8.70;5.85;;;;;;;12.78;58.90;99557.78;10377863;28;20058;-59
2023/03/29 19:39:54;;;;;;;10.30;5.07;;;;;;;12.58;59.39;99545.28;10377199;28;20069;-59
2023/03/29 19:44:56;;;;;;;8.75;4.65;;;;;;;12.62;59.34;99536.28;10375900;28;20398;-59
2023/03/29 19:49:58;;;;;;;7.85;3.72;;;;;;;12.51;59.51;99529.19;10377353;28;20312;-59
2023/03/29 19:55:01;;;;;;;8.77;4.63;;;;;;;12.49;59.48;99522.38;10371365;28;20052;-59
2023/03/29 20:00:06;;;;;;;10.25;4.90;;;;;;;12.31;59.86;99519.34;10369378;28;20053;-59
2023/03/29 20:05:14;;;;;;;7.65;4.25;;;;;;;12.25;59.97;99505.78;10346885;28;20042;-59
2023/03/29 20:10:16;;;;;;;6.60;3.97;;;;;;;12.05;60.33;99502.84;10339500;28;20156;-59
2023/03/29 20:15:18;;;;;;;8.02;3.92;;;;;;;11.92;60.69;99495.97;10341133;28;20435;-59
2023/03/29 20:20:21;;;;;;;8.68;4.43;;;;;;;11.91;60.69;99484.66;10357185;28;20065;-59
2023/03/29 20:25:23;;;;;;;6.90;4.55;;;;;;;11.99;60.86;99481.47;10343380;28;20482;-59
2023/03/29 20:30:25;;;;;;;10.60;4.90;;;;;;;11.85;61.01;99469.38;10341442;28;20497;-59
2023/03/29 20:35:27;;;;;;;8.88;5.00;;;;;;;11.71;61.13;99461.66;10342569;28;20042;-59
2023/03/29 20:40:30;;;;;;;9.80;5.18;;;;;;;11.63;61.40;99463.16;10342203;28;20048;-59
2023/03/29 20:45:32;;;;;;;9.93;5.07;;;;;;;11.65;61.62;99458.66;10359171;28;20730;-59
2023/03/29 20:50:53;;;;;;;10.67;5.67;;;;;;;11.72;61.46;99450.22;10340459;28;20048;-59
2023/03/29 20:55:54;;;;;;;8.90;4.80;;;;;;;11.75;61.40;99438.69;10339101;28;20049;-59
2023/03/29 21:00:57;;;;;;;9.60;4.97;;;;;;;11.78;61.36;99428.84;10337055;28;20056;-58
2023/03/29 21:06:01;;;;;;;9.82;5.13;;;;;;;11.68;61.61;99434.88;10340781;28;20504;-59
2023/03/29 21:11:02;;;;;;;10.40;4.60;;;;;;;11.63;61.88;99437.81;10338911;28;20128;-59
2023/03/29 21:16:05;;;;;;;8.77;4.90;;;;;;;11.58;61.99;99418.16;10339971;28;20050;-59
2023/03/29 21:21:09;;;;;;;8.27;4.82;;;;;;;11.46;61.95;99416.41;10341001;28;20446;-59
2023/03/29 21:26:10;;;;;;;9.18;4.60;;;;;;;11.40;62.08;99409.00;10338934;28;20049;-58
2023/03/29 21:31:12;;;;;;;9.38;5.30;;;;;;;11.24;62.14;99410.06;10342183;28;20456;-58
2023/03/29 21:36:14;;;;;;;9.70;5.30;;;;;;;11.27;62.19;99409.81;10339658;28;20041;-59
2023/03/29 21:41:17;;;;;;;10.65;5.68;;;;;;;11.27;62.44;99401.97;10337779;28;20049;-59
2023/03/29 21:46:19;;;;;;;9.50;5.70;;;;;;;11.30;62.34;99385.22;10338876;28;20049;-59
2023/03/29 21:51:21;;;;;;;12.30;7.43;;;;;;;11.21;62.50;99371.00;10339730;28;20057;-58
2023/03/29 21:56:22;;;;;;;10.05;6.53;;;;;;;11.14;62.68;99369.78;10337004;28;20042;-58
2023/03/29 22:01:24;;;;;;;15.18;6.30;;;;;;;11.15;62.49;99368.81;10335806;28;20050;-58
2023/03/29 22:06:26;;;;;;;11.88;6.53;;;;;;;11.03;62.65;99367.03;10339465;28;20077;-58
2023/03/29 22:11:29;;;;;;;10.50;5.20;;;;;;;10.97;62.77;99362.25;10339789;28;20061;-58
2023/03/29 22:16:31;;;;;;;9.93;6.57;;;;;;;10.94;62.71;99367.72;10339560;28;20564;-58
2023/03/29 22:21:36;;;;;;;29.75;9.02;;;;;;;10.85;62.85;99364.88;10337381;28;20121;-58
2023/03/29 22:26:37;;;;;;;34.53;8.70;;;;;;;10.82;62.90;99365.09;10338891;28;20048;-58
2023/03/29 22:31:39;;;;;;;19.92;10.27;;;;;;;10.80;63.00;99372.22;10337447;28;20489;-59
2023/03/29 22:36:41;;;;;;;16.27;10.68;;;;;;;10.82;62.96;99370.34;10337762;28;20836;-59
2023/03/29 22:41:43;;;;;;;13.05;8.30;;;;;;;10.79;63.08;99367.91;10336179;28;20045;-58
2023/03/29 22:46:45;;;;;;;13.55;8.30;;;;;;;10.70;62.82;99358.94;10336907;28;20045;-59
2023/03/29 22:51:47;;;;;;;15.90;7.15;;;;;;;10.71;63.01;99360.59;10337317;28;20081;-58
2023/03/29 22:56:49;;;;;;;8.55;5.45;;;;;;;10.75;63.35;99353.38;10336909;28;20046;-59
2023/03/29 23:01:51;;;;;;;12.43;6.10;;;;;;;10.76;63.18;99358.53;10339170;28;20442;-58
2023/03/29 23:06:53;;;;;;;17.52;6.53;;;;;;;10.69;63.11;99352.03;10338202;28;20045;-59
2023/03/29 23:11:55;;;;;;;13.18;5.35;;;;;;;10.60;63.26;99359.69;10334803;28;20521;-59
2023/03/29 23:16:57;;;;;;;10.48;4.65;;;;;;;10.56;63.69;99346.00;10337975;28;20056;-58
2023/03/29 23:21:58;;;;;;;9.32;3.95;;;;;;;10.49;63.67;99345.56;10350993;28;20053;-59
2023/03/29 23:27:01;;;;;;;9.07;4.82;;;;;;;10.38;63.89;99329.78;10337387;28;20236;-58
2023/03/29 23:32:03;;;;;;;10.27;5.78;;;;;;;10.31;63.95;99328.53;10337648;28;20330;-59
2023/03/29 23:37:05;;;;;;;11.02;5.30;;;;;;;10.22;64.24;99323.06;10335105;28;20410;-59
2023/03/29 23:42:07;;;;;;;9.30;4.90;;;;;;;10.28;64.14;99328.72;10343074;28;20116;-58
2023/03/29 23:47:09;;;;;;;8.48;4.60;;;;;;;10.36;63.99;99330.81;10344855;28;20049;-59
2023/03/29 23:52:11;;;;;;;126.50;13.32;;;;;;;10.36;63.50;99318.59;10344081;28;20058;-59
2023/03/29 23:57:13;;;;;;;40.03;7.45;;;;;;;10.30;63.53;99312.94;10343509;28;20129;-59
